sensor_id;sensor_type;location;lat;lon;timestamp;pressure;altitude;pressure_sealevel;temperature;humidity
72525;BME280;60547;48.502;8.996;2023-03-11T00:01:49;96889.34;;;2.48;64.58
72525;BME280;60547;48.502;8.996;2023-03-11T00:04:14;96874.16;;;2.40;64.29
72525;BME280;60547;48.502;8.996;2023-03-11T00:06:40;96878.53;;;2.34;64.65
72525;BME280;60547;48.502;8.996;2023-03-11T00:09:05;96880.56;;;2.26;65.33
72525;BME280;60547;48.502;8.996;2023-03-11T00:11:31;96875.50;;;2.21;65.46
72525;BME280;60547;48.502;8.996;2023-03-11T00:13:56;96880.59;;;2.22;65.57
72525;BME280;60547;48.502;8.996;2023-03-11T00:16:22;96886.00;;;2.30;66.67
72525;BME280;60547;48.502;8.996;2023-03-11T00:18:51;96877.41;;;2.28;67.14
72525;BME280;60547;48.502;8.996;2023-03-11T00:21:17;96885.63;;;2.28;65.46
72525;BME280;60547;48.502;8.996;2023-03-11T00:23:45;96878.97;;;2.29;66.44
72525;BME280;60547;48.502;8.996;2023-03-11T00:26:10;96887.97;;;2.29;66.60
72525;BME280;60547;48.502;8.996;2023-03-11T00:28:36;96880.59;;;2.22;66.19
72525;BME280;60547;48.502;8.996;2023-03-11T00:31:02;96882.53;;;2.25;67.09
72525;BME280;60547;48.502;8.996;2023-03-11T00:33:27;96882.19;;;2.20;66.73
72525;BME280;60547;48.502;8.996;2023-03-11T00:35:53;96888.88;;;2.15;66.83
72525;BME280;60547;48.502;8.996;2023-03-11T00:38:19;96891.97;;;2.21;66.91
72525;BME280;60547;48.502;8.996;2023-03-11T00:40:46;96904.09;;;2.23;67.13
72525;BME280;60547;48.502;8.996;2023-03-11T00:43:12;96899.34;;;2.28;66.83
72525;BME280;60547;48.502;8.996;2023-03-11T00:45:38;96897.34;;;2.32;66.98
72525;BME280;60547;48.502;8.996;2023-03-11T00:48:05;96904.03;;;2.31;67.71
72525;BME280;60547;48.502;8.996;2023-03-11T00:50:33;96894.63;;;2.32;67.94
72525;BME280;60547;48.502;8.996;2023-03-11T00:53:00;96911.38;;;2.41;67.83
72525;BME280;60547;48.502;8.996;2023-03-11T00:55:31;96920.78;;;2.43;67.82
72525;BME280;60547;48.502;8.996;2023-03-11T00:57:58;96917.25;;;2.43;67.53
72525;BME280;60547;48.502;8.996;2023-03-11T01:00:25;96918.00;;;2.47;67.61
72525;BME280;60547;48.502;8.996;2023-03-11T01:02:53;96911.38;;;2.41;67.97
72525;BME280;60547;48.502;8.996;2023-03-11T01:05:21;96905.94;;;2.37;69.62
72525;BME280;60547;48.502;8.996;2023-03-11T01:07:47;96900.78;;;2.43;68.01
72525;BME280;60547;48.502;8.996;2023-03-11T01:10:14;96903.19;;;2.37;69.24
72525;BME280;60547;48.502;8.996;2023-03-11T01:12:40;96910.19;;;2.42;67.38
72525;BME280;60547;48.502;8.996;2023-03-11T01:15:08;96910.59;;;2.40;67.95
72525;BME280;60547;48.502;8.996;2023-03-11T01:17:33;96907.59;;;2.28;66.57
72525;BME280;60547;48.502;8.996;2023-03-11T01:19:59;96905.22;;;2.30;67.88
72525;BME280;60547;48.502;8.996;2023-03-11T01:22:24;96897.72;;;2.34;67.24
72525;BME280;60547;48.502;8.996;2023-03-11T01:24:52;96895.03;;;2.30;68.50
72525;BME280;60547;48.502;8.996;2023-03-11T01:27:17;96902.94;;;2.21;67.34
72525;BME280;60547;48.502;8.996;2023-03-11T01:29:43;96906.13;;;2.16;67.41
72525;BME280;60547;48.502;8.996;2023-03-11T01:32:09;96929.63;;;2.20;67.60
72525;BME280;60547;48.502;8.996;2023-03-11T01:34:35;96916.22;;;2.26;66.96
72525;BME280;60547;48.502;8.996;2023-03-11T01:37:02;96922.06;;;2.32;67.72
72525;BME280;60547;48.502;8.996;2023-03-11T01:39:28;96913.78;;;2.35;66.61
72525;BME280;60547;48.502;8.996;2023-03-11T01:41:53;96922.09;;;2.28;67.30
72525;BME280;60547;48.502;8.996;2023-03-11T01:44:20;96926.09;;;2.20;66.91
72525;BME280;60547;48.502;8.996;2023-03-11T01:49:17;96923.69;;;2.25;67.62
72525;BME280;60547;48.502;8.996;2023-03-11T01:51:45;96924.13;;;2.20;66.74
72525;BME280;60547;48.502;8.996;2023-03-11T01:54:15;96917.81;;;2.23;67.69
72525;BME280;60547;48.502;8.996;2023-03-11T01:56:43;96914.69;;;2.25;66.02
72525;BME280;60547;48.502;8.996;2023-03-11T01:59:13;96913.16;;;2.20;67.31
72525;BME280;60547;48.502;8.996;2023-03-11T02:04:22;96900.44;;;2.37;67.39
72525;BME280;60547;48.502;8.996;2023-03-11T02:06:47;96888.34;;;2.31;67.40
72525;BME280;60547;48.502;8.996;2023-03-11T02:09:13;96916.13;;;2.37;67.34
72525;BME280;60547;48.502;8.996;2023-03-11T02:11:39;96912.94;;;2.42;68.16
72525;BME280;60547;48.502;8.996;2023-03-11T02:14:06;96911.47;;;2.34;67.92
72525;BME280;60547;48.502;8.996;2023-03-11T02:16:32;96919.38;;;2.24;68.54
72525;BME280;60547;48.502;8.996;2023-03-11T02:19:02;96923.25;;;2.31;68.28
72525;BME280;60547;48.502;8.996;2023-03-11T02:21:33;96930.97;;;2.43;69.54
72525;BME280;60547;48.502;8.996;2023-03-11T02:29:19;96940.41;;;2.42;68.78
72525;BME280;60547;48.502;8.996;2023-03-11T02:31:46;96930.16;;;2.46;68.71
72525;BME280;60547;48.502;8.996;2023-03-11T02:34:21;96927.84;;;2.41;68.72
72525;BME280;60547;48.502;8.996;2023-03-11T02:36:48;96937.28;;;2.40;68.74
72525;BME280;60547;48.502;8.996;2023-03-11T02:39:14;96945.94;;;2.35;68.27
72525;BME280;60547;48.502;8.996;2023-03-11T02:41:44;96940.47;;;2.35;68.52
72525;BME280;60547;48.502;8.996;2023-03-11T02:44:12;96949.50;;;2.32;68.08
72525;BME280;60547;48.502;8.996;2023-03-11T02:46:40;96946.06;;;2.20;68.42
72525;BME280;60547;48.502;8.996;2023-03-11T02:49:07;96936.72;;;2.14;66.98
72525;BME280;60547;48.502;8.996;2023-03-11T02:51:32;96930.06;;;2.12;67.38
72525;BME280;60547;48.502;8.996;2023-03-11T02:54:00;96934.53;;;1.95;66.78
72525;BME280;60547;48.502;8.996;2023-03-11T02:56:27;96928.22;;;1.98;66.22
72525;BME280;60547;48.502;8.996;2023-03-11T02:58:53;96938.09;;;1.88;65.44
72525;BME280;60547;48.502;8.996;2023-03-11T03:01:18;96958.91;;;1.82;66.64
72525;BME280;60547;48.502;8.996;2023-03-11T03:03:44;96958.53;;;1.77;65.67
72525;BME280;60547;48.502;8.996;2023-03-11T03:06:11;96966.03;;;1.73;65.55
72525;BME280;60547;48.502;8.996;2023-03-11T03:08:36;96967.56;;;1.74;66.45
72525;BME280;60547;48.502;8.996;2023-03-11T03:11:02;96962.91;;;1.67;66.36
72525;BME280;60547;48.502;8.996;2023-03-11T03:13:27;96958.25;;;1.64;66.31
72525;BME280;60547;48.502;8.996;2023-03-11T03:15:53;96964.06;;;1.70;66.79
72525;BME280;60547;48.502;8.996;2023-03-11T03:18:19;96941.78;;;1.64;66.75
72525;BME280;60547;48.502;8.996;2023-03-11T03:20:45;96950.34;;;1.73;66.52
72525;BME280;60547;48.502;8.996;2023-03-11T03:23:11;96937.06;;;1.68;66.44
72525;BME280;60547;48.502;8.996;2023-03-11T03:25:36;96942.53;;;1.72;66.25
72525;BME280;60547;48.502;8.996;2023-03-11T03:28:02;96955.13;;;1.62;66.00
72525;BME280;60547;48.502;8.996;2023-03-11T03:30:28;96940.19;;;1.67;65.19
72525;BME280;60547;48.502;8.996;2023-03-11T03:32:54;96958.31;;;1.50;65.72
72525;BME280;60547;48.502;8.996;2023-03-11T03:35:20;96969.22;;;1.60;66.56
72525;BME280;60547;48.502;8.996;2023-03-11T03:37:45;96979.41;;;1.60;66.56
72525;BME280;60547;48.502;8.996;2023-03-11T03:40:11;96980.97;;;1.61;67.13
72525;BME280;60547;48.502;8.996;2023-03-11T03:42:37;96979.38;;;1.67;67.41
72525;BME280;60547;48.502;8.996;2023-03-11T03:45:05;96989.91;;;1.72;66.66
72525;BME280;60547;48.502;8.996;2023-03-11T03:47:32;96985.28;;;1.58;67.61
72525;BME280;60547;48.502;8.996;2023-03-11T03:49:58;96988.44;;;1.57;68.11
72525;BME280;60547;48.502;8.996;2023-03-11T03:52:23;96996.72;;;1.46;68.26
72525;BME280;60547;48.502;8.996;2023-03-11T03:54:49;96993.16;;;1.49;68.59
72525;BME280;60547;48.502;8.996;2023-03-11T03:57:14;97002.19;;;1.46;68.97
72525;BME280;60547;48.502;8.996;2023-03-11T03:59:40;97015.50;;;1.48;66.99
72525;BME280;60547;48.502;8.996;2023-03-11T04:02:05;97015.56;;;1.30;66.77
72525;BME280;60547;48.502;8.996;2023-03-11T04:04:31;97013.25;;;1.18;66.29
72525;BME280;60547;48.502;8.996;2023-03-11T04:06:57;97005.88;;;1.04;67.12
72525;BME280;60547;48.502;8.996;2023-03-11T04:09:23;97003.53;;;1.06;66.37
72525;BME280;60547;48.502;8.996;2023-03-11T04:11:49;97012.94;;;0.98;66.33
72525;BME280;60547;48.502;8.996;2023-03-11T04:14:14;97010.97;;;0.99;67.51
72525;BME280;60547;48.502;8.996;2023-03-11T04:16:40;97009.84;;;0.71;66.71
72525;BME280;60547;48.502;8.996;2023-03-11T04:19:06;97015.69;;;0.87;67.44
72525;BME280;60547;48.502;8.996;2023-03-11T04:21:32;97026.66;;;0.87;66.56
72525;BME280;60547;48.502;8.996;2023-03-11T04:23:58;97014.50;;;0.95;66.66
72525;BME280;60547;48.502;8.996;2023-03-11T04:26:24;97015.28;;;1.00;65.85
72525;BME280;60547;48.502;8.996;2023-03-11T04:28:50;97025.03;;;1.08;66.46
72525;BME280;60547;48.502;8.996;2023-03-11T04:31:16;97031.31;;;1.01;66.49
72525;BME280;60547;48.502;8.996;2023-03-11T04:33:41;97019.59;;;0.86;67.47
72525;BME280;60547;48.502;8.996;2023-03-11T04:36:08;97015.69;;;0.87;68.52
72525;BME280;60547;48.502;8.996;2023-03-11T04:38:34;97017.66;;;0.83;68.47
72525;BME280;60547;48.502;8.996;2023-03-11T04:41:00;97009.84;;;0.78;68.49
72525;BME280;60547;48.502;8.996;2023-03-11T04:43:27;97002.03;;;0.77;68.74
72525;BME280;60547;48.502;8.996;2023-03-11T04:45:53;97008.69;;;0.76;69.00
72525;BME280;60547;48.502;8.996;2023-03-11T04:48:19;97013.38;;;0.68;68.98
72525;BME280;60547;48.502;8.996;2023-03-11T04:50:44;97020.81;;;0.60;69.40
72525;BME280;60547;48.502;8.996;2023-03-11T04:53:10;97031.38;;;0.55;69.08
72525;BME280;60547;48.502;8.996;2023-03-11T04:55:36;97033.72;;;0.53;68.21
72525;BME280;60547;48.502;8.996;2023-03-11T04:58:02;97031.00;;;0.31;66.93
72525;BME280;60547;48.502;8.996;2023-03-11T05:00:28;97031.38;;;0.41;68.20
72525;BME280;60547;48.502;8.996;2023-03-11T05:02:54;97035.28;;;0.32;68.14
72525;BME280;60547;48.502;8.996;2023-03-11T05:05:19;97044.28;;;0.44;68.64
72525;BME280;60547;48.502;8.996;2023-03-11T05:07:47;97037.25;;;0.43;69.24
72525;BME280;60547;48.502;8.996;2023-03-11T05:10:13;97029.81;;;0.47;69.26
72525;BME280;60547;48.502;8.996;2023-03-11T05:12:39;97043.13;;;0.52;68.69
72525;BME280;60547;48.502;8.996;2023-03-11T05:15:06;97058.75;;;0.48;68.74
72525;BME280;60547;48.502;8.996;2023-03-11T05:17:31;97056.00;;;0.48;68.48
72525;BME280;60547;48.502;8.996;2023-03-11T05:19:57;97057.19;;;0.50;69.52
72525;BME280;60547;48.502;8.996;2023-03-11T05:22:23;97052.47;;;0.15;69.08
72525;BME280;60547;48.502;8.996;2023-03-11T05:24:49;97064.59;;;0.28;69.83
72525;BME280;60547;48.502;8.996;2023-03-11T05:27:18;97067.34;;;0.28;70.90
72525;BME280;60547;48.502;8.996;2023-03-11T05:29:44;97065.00;;;0.23;71.25
72525;BME280;60547;48.502;8.996;2023-03-11T05:32:11;97073.97;;;0.20;71.51
72525;BME280;60547;48.502;8.996;2023-03-11T05:34:40;97084.13;;;0.23;72.12
72525;BME280;60547;48.502;8.996;2023-03-11T05:37:17;97075.91;;;0.16;72.69
72525;BME280;60547;48.502;8.996;2023-03-11T05:39:43;97059.50;;;0.09;72.35
72525;BME280;60547;48.502;8.996;2023-03-11T05:42:09;97069.28;;;0.10;72.81
72525;BME280;60547;48.502;8.996;2023-03-11T05:44:36;97066.91;;;-0.02;72.76
72525;BME280;60547;48.502;8.996;2023-03-11T05:47:02;97052.03;;;-0.08;72.24
72525;BME280;60547;48.502;8.996;2023-03-11T05:49:27;97050.47;;;-0.09;72.74
72525;BME280;60547;48.502;8.996;2023-03-11T05:51:53;97066.13;;;-0.06;72.68
72525;BME280;60547;48.502;8.996;2023-03-11T05:54:19;97068.44;;;-0.08;72.92
72525;BME280;60547;48.502;8.996;2023-03-11T05:56:45;97061.03;;;-0.11;72.88
72525;BME280;60547;48.502;8.996;2023-03-11T05:59:13;97044.22;;;-0.13;73.25
72525;BME280;60547;48.502;8.996;2023-03-11T06:01:39;97065.72;;;-0.05;73.57
72525;BME280;60547;48.502;8.996;2023-03-11T06:04:05;97079.00;;;-0.03;73.73
72525;BME280;60547;48.502;8.996;2023-03-11T06:06:31;97077.84;;;0.02;73.83
72525;BME280;60547;48.502;8.996;2023-03-11T06:08:56;97077.06;;;0.01;73.80
72525;BME280;60547;48.502;8.996;2023-03-11T06:11:22;97076.69;;;0.06;73.42
72525;BME280;60547;48.502;8.996;2023-03-11T06:13:52;97079.03;;;0.08;74.15
72525;BME280;60547;48.502;8.996;2023-03-11T06:16:19;97089.19;;;0.14;73.22
72525;BME280;60547;48.502;8.996;2023-03-11T06:18:45;97086.09;;;0.19;73.26
72525;BME280;60547;48.502;8.996;2023-03-11T06:21:16;97100.16;;;0.21;73.30
72525;BME280;60547;48.502;8.996;2023-03-11T06:23:41;97084.13;;;0.23;72.62
72525;BME280;60547;48.502;8.996;2023-03-11T06:26:11;97096.25;;;0.29;72.50
72525;BME280;60547;48.502;8.996;2023-03-11T06:28:38;97090.41;;;0.27;73.50
72525;BME280;60547;48.502;8.996;2023-03-11T06:31:27;97096.66;;;0.42;72.80
72525;BME280;60547;48.502;8.996;2023-03-11T06:33:53;97099.78;;;0.48;72.66
72525;BME280;60547;48.502;8.996;2023-03-11T06:36:20;97097.84;;;0.52;71.89
72525;BME280;60547;48.502;8.996;2023-03-11T06:38:49;97081.81;;;0.43;72.49
72525;BME280;60547;48.502;8.996;2023-03-11T06:41:15;97110.75;;;0.51;72.27
72525;BME280;60547;48.502;8.996;2023-03-11T06:43:42;97123.66;;;0.65;71.94
72525;BME280;60547;48.502;8.996;2023-03-11T06:46:09;97122.88;;;0.75;71.70
72525;BME280;60547;48.502;8.996;2023-03-11T06:48:35;97129.91;;;0.83;70.66
72525;BME280;60547;48.502;8.996;2023-03-11T06:51:01;97126.78;;;0.95;70.19
72525;BME280;60547;48.502;8.996;2023-03-11T06:53:28;97133.81;;;1.14;67.90
72525;BME280;60547;48.502;8.996;2023-03-11T06:58:23;97141.97;;;1.50;67.05
72525;BME280;60547;48.502;8.996;2023-03-11T07:00:49;97153.28;;;1.59;66.21
72525;BME280;60547;48.502;8.996;2023-03-11T07:03:15;97154.06;;;1.67;66.34
72525;BME280;60547;48.502;8.996;2023-03-11T07:05:40;97138.41;;;1.64;65.79
72525;BME280;60547;48.502;8.996;2023-03-11T07:08:06;97140.78;;;1.54;65.49
72525;BME280;60547;48.502;8.996;2023-03-11T07:10:31;97146.22;;;1.65;65.19
72525;BME280;60547;48.502;8.996;2023-03-11T07:12:57;97147.78;;;1.70;65.18
72525;BME280;60547;48.502;8.996;2023-03-11T07:15:22;97155.22;;;1.73;66.25
72525;BME280;60547;48.502;8.996;2023-03-11T07:17:48;97157.16;;;1.76;66.07
72525;BME280;60547;48.502;8.996;2023-03-11T07:20:13;97168.91;;;1.80;64.96
72525;BME280;60547;48.502;8.996;2023-03-11T07:22:39;97167.78;;;1.67;66.27
72525;BME280;60547;48.502;8.996;2023-03-11T07:25:04;97181.13;;;1.47;66.05
72525;BME280;60547;48.502;8.996;2023-03-11T07:27:30;97161.94;;;1.43;66.52
72525;BME280;60547;48.502;8.996;2023-03-11T07:29:56;97170.13;;;1.65;66.85
72525;BME280;60547;48.502;8.996;2023-03-11T07:32:21;97168.16;;;1.69;66.02
72525;BME280;60547;48.502;8.996;2023-03-11T07:34:47;97175.91;;;1.95;65.68
72525;BME280;60547;48.502;8.996;2023-03-11T07:37:13;97164.84;;;2.16;65.11
72525;BME280;60547;48.502;8.996;2023-03-11T07:39:39;97170.38;;;2.09;64.64
72525;BME280;60547;48.502;8.996;2023-03-11T07:42:05;97170.31;;;2.20;65.40
72525;BME280;60547;48.502;8.996;2023-03-11T07:44:30;97173.13;;;2.06;62.32
72525;BME280;60547;48.502;8.996;2023-03-11T07:46:56;97170.75;;;2.08;62.22
72525;BME280;60547;48.502;8.996;2023-03-11T07:49:21;97177.78;;;2.12;61.60
72525;BME280;60547;48.502;8.996;2023-03-11T07:51:47;97177.75;;;2.23;62.02
72525;BME280;60547;48.502;8.996;2023-03-11T07:54:12;97185.13;;;2.37;61.20
72525;BME280;60547;48.502;8.996;2023-03-11T07:56:38;97171.78;;;2.39;59.20
72525;BME280;60547;48.502;8.996;2023-03-11T07:59:04;97188.81;;;2.78;59.36
72525;BME280;60547;48.502;8.996;2023-03-11T08:01:31;97184.78;;;2.94;59.45
72525;BME280;60547;48.502;8.996;2023-03-11T08:04:01;97187.47;;;3.01;58.82
72525;BME280;60547;48.502;8.996;2023-03-11T08:06:28;97181.88;;;2.56;58.56
72525;BME280;60547;48.502;8.996;2023-03-11T08:08:56;97192.22;;;2.97;58.86
72525;BME280;60547;48.502;8.996;2023-03-11T08:11:23;97187.75;;;3.17;58.06
72525;BME280;60547;48.502;8.996;2023-03-11T08:13:49;97196.25;;;3.33;57.50
72525;BME280;60547;48.502;8.996;2023-03-11T08:16:16;97190.81;;;3.26;56.76
72525;BME280;60547;48.502;8.996;2023-03-11T08:18:43;97196.09;;;3.03;57.03
72525;BME280;60547;48.502;8.996;2023-03-11T08:21:14;97197.44;;;2.77;57.54
72525;BME280;60547;48.502;8.996;2023-03-11T08:23:40;97206.81;;;2.83;56.64
72525;BME280;60547;48.502;8.996;2023-03-11T08:26:08;97214.44;;;2.57;57.66
72525;BME280;60547;48.502;8.996;2023-03-11T08:28:35;97216.50;;;2.36;58.40
72525;BME280;60547;48.502;8.996;2023-03-11T08:31:01;97218.13;;;2.22;59.32
72525;BME280;60547;48.502;8.996;2023-03-11T08:33:27;97224.38;;;2.30;59.09
72525;BME280;60547;48.502;8.996;2023-03-11T08:35:53;97220.13;;;2.88;58.45
72525;BME280;60547;48.502;8.996;2023-03-11T08:38:18;97208.69;;;2.97;57.26
72525;BME280;60547;48.502;8.996;2023-03-11T08:40:44;97206.41;;;3.40;57.19
72525;BME280;60547;48.502;8.996;2023-03-11T08:43:13;97210.81;;;3.71;55.98
72525;BME280;60547;48.502;8.996;2023-03-11T08:45:42;97224.19;;;3.69;54.17
72525;BME280;60547;48.502;8.996;2023-03-11T08:48:11;97224.53;;;3.75;54.27
72525;BME280;60547;48.502;8.996;2023-03-11T08:50:40;97222.53;;;3.79;54.56
72525;BME280;60547;48.502;8.996;2023-03-11T08:53:06;97222.34;;;3.97;54.84
72525;BME280;60547;48.502;8.996;2023-03-11T08:55:33;97225.59;;;3.88;53.01
72525;BME280;60547;48.502;8.996;2023-03-11T08:57:59;97220.34;;;4.01;54.45
72525;BME280;60547;48.502;8.996;2023-03-11T09:00:24;97213.56;;;4.09;52.96
72525;BME280;60547;48.502;8.996;2023-03-11T09:02:51;97216.44;;;4.32;53.61
72525;BME280;60547;48.502;8.996;2023-03-11T09:05:17;97221.16;;;4.62;53.27
72525;BME280;60547;48.502;8.996;2023-03-11T09:07:43;97225.75;;;4.08;53.42
72525;BME280;60547;48.502;8.996;2023-03-11T09:10:12;97216.81;;;4.00;52.20
72525;BME280;60547;48.502;8.996;2023-03-11T09:12:38;97224.75;;;4.59;54.68
72525;BME280;60547;48.502;8.996;2023-03-11T09:15:04;97215.50;;;4.73;52.86
72525;BME280;60547;48.502;8.996;2023-03-11T09:17:30;97213.28;;;4.91;53.58
72525;BME280;60547;48.502;8.996;2023-03-11T09:19:55;97224.47;;;4.80;52.79
72525;BME280;60547;48.502;8.996;2023-03-11T09:22:21;97238.56;;;5.13;52.09
72525;BME280;60547;48.502;8.996;2023-03-11T09:24:47;97240.38;;;5.23;52.08
72525;BME280;60547;48.502;8.996;2023-03-11T09:27:12;97230.44;;;5.29;51.19
72525;BME280;60547;48.502;8.996;2023-03-11T09:29:39;97230.03;;;5.04;50.64
72525;BME280;60547;48.502;8.996;2023-03-11T09:32:05;97242.16;;;4.83;52.17
72525;BME280;60547;48.502;8.996;2023-03-11T09:34:30;97226.22;;;4.67;51.71
72525;BME280;60547;48.502;8.996;2023-03-11T09:36:56;97221.25;;;4.85;52.63
72525;BME280;60547;48.502;8.996;2023-03-11T09:39:21;97225.34;;;4.74;50.69
72525;BME280;60547;48.502;8.996;2023-03-11T09:44:55;97237.88;;;4.78;51.41
72525;BME280;60547;48.502;8.996;2023-03-11T09:47:40;97233.75;;;5.44;51.00
72525;BME280;60547;48.502;8.996;2023-03-11T09:50:22;97242.75;;;5.48;49.48
72525;BME280;60547;48.502;8.996;2023-03-11T10:00:50;97244.34;;;4.65;48.67
72525;BME280;60547;48.502;8.996;2023-03-11T10:03:25;97241.97;;;4.67;49.96
72525;BME280;60547;48.502;8.996;2023-03-11T10:06:00;97237.03;;;5.35;49.78
72525;BME280;60547;48.502;8.996;2023-03-11T10:08:33;97239.59;;;5.23;49.05
72525;BME280;60547;48.502;8.996;2023-03-11T10:11:18;97238.50;;;5.16;48.21
72525;BME280;60547;48.502;8.996;2023-03-11T10:14:12;97244.06;;;5.63;47.74
72525;BME280;60547;48.502;8.996;2023-03-11T10:19:49;97237.41;;;5.10;45.92
72525;BME280;60547;48.502;8.996;2023-03-11T10:22:35;97246.06;;;5.63;46.44
72525;BME280;60547;48.502;8.996;2023-03-11T10:25:13;97237.56;;;6.20;45.62
72525;BME280;60547;48.502;8.996;2023-03-11T10:27:46;97228.47;;;6.59;44.50
72525;BME280;60547;48.502;8.996;2023-03-11T10:30:22;97228.09;;;7.13;44.60
72525;BME280;60547;48.502;8.996;2023-03-11T10:33:23;97236.41;;;7.45;44.04
72525;BME280;60547;48.502;8.996;2023-03-11T10:35:54;97230.09;;;7.29;42.59
72525;BME280;60547;48.502;8.996;2023-03-11T10:38:30;97227.66;;;7.15;41.78
72525;BME280;60547;48.502;8.996;2023-03-11T10:40:59;97221.88;;;7.41;42.26
72525;BME280;60547;48.502;8.996;2023-03-11T10:45:52;97232.59;;;7.72;41.45
72525;BME280;60547;48.502;8.996;2023-03-11T10:48:19;97220.50;;;8.11;39.24
72525;BME280;60547;48.502;8.996;2023-03-11T10:50:49;97227.41;;;8.19;39.33
72525;BME280;60547;48.502;8.996;2023-03-11T10:53:18;97227.34;;;8.06;39.86
72525;BME280;60547;48.502;8.996;2023-03-11T10:55:49;97232.53;;;8.21;39.46
72525;BME280;60547;48.502;8.996;2023-03-11T10:58:19;97227.47;;;7.87;39.63
72525;BME280;60547;48.502;8.996;2023-03-11T11:00:45;97234.81;;;6.96;39.42
72525;BME280;60547;48.502;8.996;2023-03-11T11:03:23;97231.59;;;6.61;40.98
72525;BME280;60547;48.502;8.996;2023-03-11T11:06:03;97242.72;;;6.58;41.77
72525;BME280;60547;48.502;8.996;2023-03-11T11:08:30;97235.38;;;7.39;41.34
72525;BME280;60547;48.502;8.996;2023-03-11T11:10:59;97235.25;;;7.92;39.25
72525;BME280;60547;48.502;8.996;2023-03-11T11:13:27;97221.50;;;7.88;40.95
72525;BME280;60547;48.502;8.996;2023-03-11T11:15:59;97243.16;;;8.22;40.15
72525;BME280;60547;48.502;8.996;2023-03-11T11:18:28;97233.81;;;8.74;37.30
72525;BME280;60547;48.502;8.996;2023-03-11T11:21:07;97233.84;;;8.99;38.80
72525;BME280;60547;48.502;8.996;2023-03-11T11:23:37;97226.09;;;9.07;37.87
72525;BME280;60547;48.502;8.996;2023-03-11T11:26:13;97235.88;;;9.24;37.37
72525;BME280;60547;48.502;8.996;2023-03-11T11:28:40;97235.06;;;8.86;36.98
72525;BME280;60547;48.502;8.996;2023-03-11T11:31:19;97234.66;;;8.58;36.05
72525;BME280;60547;48.502;8.996;2023-03-11T11:33:53;97231.41;;;8.89;35.97
72525;BME280;60547;48.502;8.996;2023-03-11T11:36:24;97229.28;;;8.80;36.93
72525;BME280;60547;48.502;8.996;2023-03-11T11:38:51;97225.03;;;8.63;36.28
72525;BME280;60547;48.502;8.996;2023-03-11T11:41:20;97222.56;;;7.78;37.35
72525;BME280;60547;48.502;8.996;2023-03-11T11:44:02;97220.44;;;7.98;38.27
72525;BME280;60547;48.502;8.996;2023-03-11T11:46:46;97224.50;;;8.81;37.71
72525;BME280;60547;48.502;8.996;2023-03-11T11:49:33;97214.78;;;9.27;37.46
72525;BME280;60547;48.502;8.996;2023-03-11T11:54:33;97211.44;;;6.80;38.99
72525;BME280;60547;48.502;8.996;2023-03-11T11:57:16;97213.66;;;8.16;38.81
72525;BME280;60547;48.502;8.996;2023-03-11T11:59:43;97209.66;;;9.00;37.45
72525;BME280;60547;48.502;8.996;2023-03-11T12:05:00;97200.03;;;8.50;37.92
72525;BME280;60547;48.502;8.996;2023-03-11T12:10:17;97194.13;;;9.15;36.82
72525;BME280;60547;48.502;8.996;2023-03-11T12:15:37;97184.75;;;10.29;35.62
72525;BME280;60547;48.502;8.996;2023-03-11T12:18:14;97175.34;;;9.79;35.16
72525;BME280;60547;48.502;8.996;2023-03-11T12:20:45;97184.97;;;10.00;35.35
72525;BME280;60547;48.502;8.996;2023-03-11T12:23:45;97191.56;;;9.33;37.43
72525;BME280;60547;48.502;8.996;2023-03-11T12:26:19;97187.00;;;9.87;36.14
72525;BME280;60547;48.502;8.996;2023-03-11T12:31:26;97176.47;;;9.22;35.59
72525;BME280;60547;48.502;8.996;2023-03-11T12:33:57;97168.25;;;9.31;34.03
72525;BME280;60547;48.502;8.996;2023-03-11T12:36:36;97157.94;;;10.00;35.61
72525;BME280;60547;48.502;8.996;2023-03-11T12:39:04;97161.53;;;9.88;34.96
72525;BME280;60547;48.502;8.996;2023-03-11T12:41:36;97155.78;;;10.39;35.22
72525;BME280;60547;48.502;8.996;2023-03-11T12:49:27;97154.22;;;9.47;34.25
72525;BME280;60547;48.502;8.996;2023-03-11T12:52:24;97150.19;;;10.17;35.08
72525;BME280;60547;48.502;8.996;2023-03-11T12:57:33;97145.94;;;10.47;35.05
72525;BME280;60547;48.502;8.996;2023-03-11T13:00:17;97148.78;;;10.56;35.13
72525;BME280;60547;48.502;8.996;2023-03-11T13:03:00;97135.28;;;10.77;34.64
72525;BME280;60547;48.502;8.996;2023-03-11T13:08:42;97151.75;;;10.93;34.08
72525;BME280;60547;48.502;8.996;2023-03-11T13:11:41;97146.91;;;11.24;33.65
72525;BME280;60547;48.502;8.996;2023-03-11T13:16:34;97139.69;;;10.96;33.45
72525;BME280;60547;48.502;8.996;2023-03-11T13:21:56;97143.81;;;11.22;32.92
72525;BME280;60547;48.502;8.996;2023-03-11T13:27:09;97161.22;;;11.05;33.14
72525;BME280;60547;48.502;8.996;2023-03-11T13:29:44;97161.16;;;10.86;32.12
72525;BME280;60547;48.502;8.996;2023-03-11T13:37:45;97154.34;;;10.56;33.53
72525;BME280;60547;48.502;8.996;2023-03-11T13:40:31;97154.97;;;10.60;34.78
72525;BME280;60547;48.502;8.996;2023-03-11T13:43:02;97156.41;;;10.65;35.68
72525;BME280;60547;48.502;8.996;2023-03-11T13:45:29;97156.94;;;10.29;33.50
72525;BME280;60547;48.502;8.996;2023-03-11T13:48:13;97151.34;;;9.85;34.98
72525;BME280;60547;48.502;8.996;2023-03-11T13:50:55;97154.09;;;9.51;35.42
72525;BME280;60547;48.502;8.996;2023-03-11T13:53:28;97173.84;;;10.00;34.85
72525;BME280;60547;48.502;8.996;2023-03-11T13:55:55;97157.16;;;10.00;34.89
72525;BME280;60547;48.502;8.996;2023-03-11T13:58:23;97161.31;;;10.17;34.44
72525;BME280;60547;48.502;8.996;2023-03-11T14:00:57;97168.84;;;10.29;34.85
72525;BME280;60547;48.502;8.996;2023-03-11T14:03:25;97151.72;;;10.31;34.12
72525;BME280;60547;48.502;8.996;2023-03-11T14:06:16;97161.66;;;10.63;34.32
72525;BME280;60547;48.502;8.996;2023-03-11T14:08:54;97165.53;;;10.22;35.08
72525;BME280;60547;48.502;8.996;2023-03-11T14:11:25;97157.03;;;10.69;34.09
72525;BME280;60547;48.502;8.996;2023-03-11T14:13:51;97146.06;;;10.44;33.03
72525;BME280;60547;48.502;8.996;2023-03-11T14:21:28;97142.06;;;10.45;34.34
72525;BME280;60547;48.502;8.996;2023-03-11T14:23:56;97133.66;;;10.35;31.19
72525;BME280;60547;48.502;8.996;2023-03-11T14:26:28;97120.69;;;10.63;33.57
72525;BME280;60547;48.502;8.996;2023-03-11T14:28:56;97136.59;;;10.63;32.56
72525;BME280;60547;48.502;8.996;2023-03-11T14:31:37;97145.78;;;10.73;33.52